Flight Track Log - Related Links

Times and Time Zones

All times are in EDT time to prevent confusion due to time zone crossing. See the RPA3247 flight status page for this flight to view local times or setup timezone preferences in your user account.

Time Position Orientation Groundspeed Altitude Reporting Facility
EDT Latitude Longitude Course Direction KTS MPH feet Rate Location/Type
Tue 05:25:24 PM 42.7214 -73.8050 135° Southeast 166 191 1,700  Level Boston Center
Tue 05:26:26 PM 42.6753 -73.8294 201° Southwest 164 189 4,000 2,852 Climbing Boston Center
Tue 05:27:00 PM 42.5323 -73.9945 171° South  Level Estimated
Tue 05:27:26 PM 42.6742 -73.9256 269° West 153 176 7,500  Level Boston Center
Tue 05:28:00 PM 42.4816 -73.8997 126° Southeast  Level FlightAware Approximate
Tue 05:28:26 PM 42.6686 -74.0214 266° West 207 238 10,700  Level Boston Center
Tue 05:29:00 PM 42.4103 -73.9656 170° South  Level Estimated
Tue 05:29:26 PM 42.6650 -74.1258 267° West 266 306 14,100  Level Boston Center
Tue 05:30:00 PM 42.3491 -73.8831 135° Southeast  Level FlightAware Approximate
Tue 05:30:26 PM 42.6222 -74.1953 230° Southwest 264 304 16,500  Level Boston Center
Tue 05:31:26 PM 42.5378 -74.1419 155° Southeast 253 291 17,800 1,600 Climbing Boston Center
Tue 05:32:26 PM 42.4511 -74.0861 155° Southeast 306 352 19,700 2,150 Climbing Boston Center
Tue 05:33:26 PM 42.3581 -74.0219 153° Southeast 352 405 22,100 2,200 Climbing Boston Center
Tue 05:34:26 PM 42.2633 -73.9494 150° Southeast 374 430 24,100 1,900 Climbing Boston Center
Tue 05:35:26 PM 42.1722 -73.8883 154° Southeast 394 453 25,900 1,700 Climbing Boston Center
Tue 05:36:26 PM 42.0619 -73.8831 178° South 394 453 27,500 1,050 Climbing Boston Center
Tue 05:37:26 PM 41.9531 -73.9281 197° South 395 455 28,000 250 Climbing Boston Center
Tue 05:38:26 PM 41.8439 -73.9756 198° South 395 455 28,000  Level Boston Center
Tue 05:40:28 PM 41.6197 -74.0622 196° South 420 483 28,000  Level New York Center
Tue 05:41:28 PM 41.5164 -74.1069 198° South 415 478 28,000  Level New York Center
Tue 05:42:29 PM 41.4047 -74.1539 198° South 415 478 28,000  Level New York Center
Tue 05:43:28 PM 41.2972 -74.1981 197° South 415 478 28,000  Level New York Center
Tue 05:44:28 PM 41.1731 -74.2442 196° South 420 483 28,000  Level New York Center
Tue 05:45:28 PM 41.0653 -74.2908 198° South 420 483 28,000  Level New York Center
Tue 05:46:29 PM 40.9539 -74.3317 195° South 420 483 28,000  Level New York Center
Tue 05:47:30 PM 40.8461 -74.3783 198° South 420 483 28,000  Level New York Center
Tue 05:48:28 PM 40.7517 -74.4636 214° Southwest 404 465 28,000 -254 Level New York Center
Tue 05:49:28 PM 40.6997 -74.5922 242° Southwest 386 444 27,500 -893 Descending New York Center
Tue 05:50:29 PM 40.6558 -74.7267 247° West 397 457 26,200 -1,279 Descending New York Center
Tue 05:51:30 PM 40.6014 -74.8519 240° Southwest 397 457 24,900 -1,311 Descending New York Center
Tue 05:52:28 PM 40.5411 -74.9686 236° Southwest 392 451 23,600 -1,300 Descending New York Center
Tue 05:53:30 PM 40.4808 -75.0822 235° Southwest 392 451 22,300 -800 Descending New York Center
Tue 05:54:28 PM 40.4225 -75.1956 236° Southwest 386 444 22,000 -153 Descending New York Center
Tue 05:55:28 PM 40.3378 -75.2803 217° Southwest 381 438 22,000  Level New York Center
Tue 05:56:28 PM 40.2514 -75.3614 216° Southwest 381 438 22,000  Level New York Center
Tue 05:57:29 PM 40.1669 -75.4403 216° Southwest 381 438 22,000  Level New York Center
Tue 05:58:29 PM 40.0803 -75.5239 216° Southwest 386 444 22,000  Level New York Center
Tue 05:59:30 PM 39.9958 -75.6022 215° Southwest 386 444 22,000  Level New York Center
Tue 06:00:28 PM 39.9131 -75.6883 219° Southwest 386 444 22,000  Level New York Center
Tue 06:01:29 PM 39.8453 -75.8108 234° Southwest 393 452 22,000  Level New York Center
Tue 06:02:29 PM 39.7836 -75.9333 237° Southwest 407 468 22,000 -645 Level New York Center
Tue 06:03:30 PM 39.7200 -76.0556 236° Southwest 413 475 20,700 -1,796 Descending New York Center
Tue 06:05:16 PM 39.5833 -76.2500 228° Southwest 393 452 17,000 -2,422 Descending Potomac TRACON
Tue 06:06:16 PM 39.5000 -76.3500 223° Southwest 381 438 14,000 -2,500 Descending Potomac TRACON
Tue 06:07:16 PM 39.4333 -76.4333 224° Southwest 363 418 12,000 -1,263 Descending Potomac TRACON
Tue 06:08:10 PM 39.3500 -76.5000 212° Southwest 363 418 11,600 -1,043 Descending Potomac TRACON
Tue 06:09:11 PM 39.2667 -76.5667 212° Southwest 353 406 10,000 -800 Descending Potomac TRACON
Tue 06:10:10 PM 39.2000 -76.6333 218° Southwest 301 346 10,000  Level Potomac TRACON
Tue 06:11:05 PM 39.1500 -76.7000 226° Southwest 290 334 10,000  Level Potomac TRACON
Tue 06:12:05 PM 39.0833 -76.7667 218° Southwest 291 335 10,000 -150 Level Potomac TRACON
Tue 06:13:05 PM 39.0333 -76.8333 226° Southwest 248 285 9,700 -900 Descending Potomac TRACON
Tue 06:14:05 PM 38.9833 -76.8833 218° Southwest 243 280 8,200 -1,789 Descending Potomac TRACON
Tue 06:14:59 PM 38.9333 -76.9333 218° Southwest 235 270 6,300 -1,158 Descending Potomac TRACON
Tue 06:15:59 PM 38.8833 -76.9500 195° South 205 236 6,000 -446 Descending Potomac TRACON
Tue 06:17:00 PM 38.8167 -76.9500 180° South 207 238 5,400 -496 Descending Potomac TRACON
Tue 06:18:00 PM 38.7667 -76.9500 180° South 198 228 5,000 -200 Descending Potomac TRACON
Tue 06:19:00 PM 38.7167 -76.9333 165° South 176 203 5,000 -100 Level Potomac TRACON
Tue 06:20:00 PM 38.6667 -76.9333 180° South 174 200 4,800 -500 Descending Potomac TRACON
Tue 06:21:00 PM 38.6167 -76.9333 180° South 175 201 4,000 -397 Descending Potomac TRACON
Tue 06:22:01 PM 38.5667 -76.9167 165° South 174 200 4,000  Level Potomac TRACON
Tue 06:23:01 PM 38.5500 -76.9667 247° West 209 241 4,000  Level Potomac TRACON
Tue 06:24:01 PM 38.5833 -77.0000 322° Northwest 187 215 4,000  Level Potomac TRACON
Tue 06:25:02 PM 38.6333 -77.0167 345° North 175 201 4,000 -347 Level Potomac TRACON
Tue 06:26:02 PM 38.6833 -77.0167 360° North 158 182 3,300 -750 Descending Potomac TRACON
Tue 06:27:02 PM 38.7167 -77.0167 360° North 155 178 2,500 -800 Descending Potomac TRACON

Login

Don't have an account? Register now (free) for customized features, flight alerts, and more!